Tokyo, Japan
Current Conditions -  °F | °C
As of 4:00 AM on Sunday 26 Oct 2014 (Local Time) from RJTT Reporting Station
Broken Clouds Broken Clouds  
Wind Chill: 64°   Ceiling: 1500
Heat Index: 64°   Visibility: 6mi
Dew Point: 55°   Wind: 7mph
Humidity: 73%   Direction: 10°N
Pressure: 30.15"   Gusts: NA
Location:  35.67°N, 139.77°E
Report Text: RJTT 251900Z 01006KT 9999 FEW010 BKN015 18/13 Q1021 NOSIG
Loading
Personal Weather Stations






























Interactive Weather Map
Tropical Storm Tracking
New forecast layout! Learn more

10-Day Weather Forecast

Advertisements
Track Severe Weather on mobile